Monterey Peninsula Airport Monterey US
ICAO: KMRY
IATA: MRY
Category: Medium
Scheduled Services: Yes

Elevation: 257 ft
TransAlt. 18000 ft.

Airport Communications:
NORCAL APP/DEP:127.15
ATIS:119.25
CLNC DEL:135.45
CTAF:118.4
GND:121.9
TWR:118.4
UNICOM:122.95

KMRY Zoom In..

If you have problems with the map follow the link
https://www.worldairports.se/pages/airport.php?
ICAO=KMRY

Runways:

(A) RW 10L length 3513 ft width 60 ft
LOC 110.70 / hdg 98

(B) RW 10R length 7616 ft width 150 ft
ILS 110.70 / hdg 98

(C) RW 28L length 7616 ft width 150 ft
LOC 110.70 / hdg 278

(D) RW 28R length 3513 ft width 60 ft
LOC 110.70 / hdg 278

Location; KMRY
Day. 19 / Time. 12.54 Zulu
* Altimeter: 30.01
* Temperature: 08° c. 46.4°f.
* Wind from: 000° Speed 00 kn.
Dewpoint: 04° c.
Visibility: 9 Statute Miles.
Clouds: Clear (automated report).
Conditions: Smoke.

KMRY 191254Z AUTO 00000KT 9SM FU CLR 08/04 A3001 RMK AO2 SLP176 T00780044


Wind - Calm.

 
 
jpsmedia.com for Web Design worldairports.se 2018   terms of use